51NY weather

CLOSED Maxon Field
Holley, New York, United States

Public forecast

Using degrees Fahrenheit for public forecast. Weather courtesy of forecast.io.

METAR (pilot weather report)

Closest report is Greater Rochester International Airport, 16.5 nm (30.5 km) ESE. Retrieved 2019/06/19 21:54 UTC (25 minutes ago):

KROC 192154Z 03010KT 10SM FEW040 SCT150 OVC180 25/14 A2972 RMK AO2 SLP065 T02500139

TAF (pilot weather forecast)

Closest forecast is Greater Rochester International Airport, 16.5 nm (30.5 km) ESE. Retrieved 2019/06/19 18:45 UTC (4 hours ago):

TAF KROC 191743Z 1918/2018 33005KT P6SM BKN050 FM200000 05004KT P6SM SCT250 FM200800 VRB03KT P6SM OVC045 FM201200 04004KT P6SM OVC012 FM201400 04004KT 5SM SHRA BR OVC007